createdAt,value
2017-05-17T00:00:13.910Z,58.2
2017-05-17T00:00:54.528Z,58.11
2017-05-17T00:01:35.103Z,58.59
2017-05-17T00:02:15.680Z,58.78
2017-05-17T00:02:56.276Z,58.49
2017-05-17T00:03:36.859Z,58.11
2017-05-17T00:04:17.438Z,58.39
2017-05-17T00:04:58.082Z,58.3
2017-05-17T00:05:38.672Z,58.69
2017-05-17T00:06:19.275Z,58.39
2017-05-17T00:06:59.882Z,59.16
2017-05-17T00:07:40.479Z,58.97
2017-05-17T00:08:21.063Z,59.06
2017-05-17T00:09:01.643Z,58.87
2017-05-17T00:09:42.251Z,58.97
2017-05-17T00:10:22.829Z,59.16
2017-05-17T00:11:03.478Z,58.97
2017-05-17T00:11:44.028Z,58.87
2017-05-17T00:12:24.634Z,58.78
2017-05-17T00:13:05.248Z,58.39
2017-05-17T00:13:45.831Z,58.97
2017-05-17T00:14:26.456Z,58.3
2017-05-17T00:15:07.035Z,58.49
2017-05-17T00:15:47.595Z,58.2
2017-05-17T00:16:28.180Z,58.3
2017-05-17T00:17:08.832Z,58.2
2017-05-17T00:17:49.415Z,58.39
2017-05-17T00:18:30.012Z,58.39
2017-05-17T00:19:10.610Z,58.2
2017-05-17T00:19:51.202Z,58.49
2017-05-17T00:20:31.803Z,58.59
2017-05-17T00:21:12.392Z,58.39
2017-05-17T00:21:52.978Z,58.39
2017-05-17T00:22:33.561Z,58.39
2017-05-17T00:23:14.158Z,58.3
2017-05-17T00:23:54.757Z,58.2
2017-05-17T00:24:35.346Z,58.49
2017-05-17T00:25:15.945Z,58.3
2017-05-17T00:25:56.566Z,58.2
2017-05-17T00:26:37.175Z,58.11
2017-05-17T00:27:17.780Z,58.3
2017-05-17T00:27:58.369Z,58.3
2017-05-17T00:28:38.936Z,58.39
2017-05-17T00:29:19.520Z,58.2
2017-05-17T00:30:00.141Z,57.82
2017-05-17T00:30:40.737Z,58.01
2017-05-17T00:31:21.317Z,57.82
2017-05-17T00:32:01.896Z,58.2
2017-05-17T00:32:42.474Z,58.39
2017-05-17T00:33:23.053Z,58.11
2017-05-17T00:34:03.646Z,57.92
2017-05-17T00:34:44.228Z,58.01
2017-05-17T00:35:24.819Z,58.01
2017-05-17T00:36:05.420Z,57.63
2017-05-17T00:36:45.990Z,57.06
2017-05-17T00:37:26.573Z,57.34
2017-05-17T00:38:07.164Z,57.34
2017-05-17T00:38:47.739Z,57.15
2017-05-17T00:39:28.322Z,57.43
2017-05-17T00:40:08.922Z,57.82
2017-05-17T00:40:49.521Z,57.72
2017-05-17T00:41:30.108Z,57.53
2017-05-17T00:42:10.698Z,57.63
2017-05-17T00:42:51.320Z,57.34
2017-05-17T00:43:31.968Z,57.24
2017-05-17T00:44:12.560Z,57.82
2017-05-17T00:44:53.132Z,57.63
2017-05-17T00:45:33.715Z,57.72
2017-05-17T00:46:14.310Z,57.06
2017-05-17T00:46:54.884Z,57.24
2017-05-17T00:47:35.468Z,57.06
2017-05-17T00:48:16.052Z,57.43
2017-05-17T00:48:56.618Z,57.53
2017-05-17T00:49:37.222Z,57.34
2017-05-17T00:50:17.790Z,57.43
2017-05-17T00:50:58.360Z,57.72
2017-05-17T00:51:38.931Z,57.63
2017-05-17T00:52:19.585Z,57.92
2017-05-17T00:53:00.205Z,57.24
2017-05-17T00:53:40.804Z,57.24
2017-05-17T00:54:21.381Z,57.24
2017-05-17T00:55:02.000Z,57.06
2017-05-17T00:55:42.637Z,57.06
2017-05-17T00:56:23.176Z,57.06
2017-05-17T00:57:03.760Z,57.24
2017-05-17T00:57:44.338Z,56.96
2017-05-17T00:58:24.943Z,56.09
2017-05-17T00:59:05.512Z,55.9
2017-05-17T00:59:46.149Z,55.9
2017-05-17T01:00:26.775Z,55.9
2017-05-17T01:01:07.365Z,56.38
2017-05-17T01:01:47.955Z,56.48
2017-05-17T01:02:28.535Z,56.29
2017-05-17T01:03:09.126Z,56.29
2017-05-17T01:03:49.716Z,56.96
2017-05-17T01:04:30.279Z,57.06
2017-05-17T01:05:10.873Z,56.96
2017-05-17T01:05:51.458Z,56.96
2017-05-17T01:06:32.080Z,57.06
2017-05-17T01:07:12.662Z,57.24
2017-05-17T01:07:53.244Z,57.24
2017-05-17T01:08:33.827Z,57.06
2017-05-17T01:09:14.425Z,56.38
2017-05-17T01:09:54.982Z,56.67
2017-05-17T01:10:35.559Z,56.67
2017-05-17T01:11:16.134Z,56.29
2017-05-17T01:11:56.725Z,56.67
2017-05-17T01:12:37.320Z,55.71
2017-05-17T01:13:17.906Z,56.19
2017-05-17T01:13:58.471Z,56.09
2017-05-17T01:14:39.062Z,55.9
2017-05-17T01:15:19.673Z,56.09
2017-05-17T01:16:00.264Z,56.57
2017-05-17T01:16:40.852Z,56.67
2017-05-17T01:17:21.417Z,56.67
2017-05-17T01:18:01.989Z,56.67
2017-05-17T01:18:42.634Z,56.09
2017-05-17T01:19:23.216Z,56.29
2017-05-17T01:20:03.795Z,56.67
2017-05-17T01:20:44.385Z,56.57
2017-05-17T01:21:25.005Z,56.67
2017-05-17T01:22:05.589Z,56.19
2017-05-17T01:22:46.181Z,56.29
2017-05-17T01:23:26.766Z,56.38
2017-05-17T01:24:07.368Z,56.29
2017-05-17T01:24:48.019Z,56.67
2017-05-17T01:25:28.568Z,56.57
2017-05-17T01:26:09.135Z,56.57
2017-05-17T01:26:49.753Z,56.48
2017-05-17T01:27:30.336Z,57.15
2017-05-17T01:28:10.917Z,56.38
2017-05-17T01:28:51.485Z,56.38
2017-05-17T01:29:32.089Z,56.19
2017-05-17T01:30:12.668Z,56.19
2017-05-17T01:30:53.238Z,56.48
2017-05-17T01:31:33.831Z,56.38
2017-05-17T01:32:14.437Z,56.29
2017-05-17T01:32:55.037Z,56.76
2017-05-17T01:33:35.616Z,56.19
2017-05-17T01:34:16.187Z,56.29
2017-05-17T01:34:56.766Z,56.76
2017-05-17T01:35:37.356Z,56.67
2017-05-17T01:36:17.946Z,56.38
2017-05-17T01:36:58.527Z,56.67
2017-05-17T01:37:39.095Z,56.19
2017-05-17T01:38:19.699Z,56.48
2017-05-17T01:39:00.294Z,56.48
2017-05-17T01:39:40.878Z,56.19
2017-05-17T01:40:21.488Z,56.29
2017-05-17T01:41:02.068Z,56.19
2017-05-17T01:41:42.683Z,56.57
2017-05-17T01:42:23.258Z,56.67
2017-05-17T01:43:03.839Z,56.67
2017-05-17T01:43:44.436Z,56.67
2017-05-17T01:44:25.021Z,55.9
2017-05-17T01:45:05.616Z,56.57
2017-05-17T01:45:46.220Z,56.19
2017-05-17T01:46:26.803Z,56.19
2017-05-17T01:47:07.380Z,56.67
2017-05-17T01:47:48.009Z,56.19
2017-05-17T01:48:28.665Z,56.29
2017-05-17T01:49:09.260Z,56.48
2017-05-17T01:49:49.849Z,56.48
2017-05-17T01:50:30.514Z,56.57
2017-05-17T01:51:11.099Z,56.48
2017-05-17T01:51:51.681Z,56.67
2017-05-17T01:52:32.275Z,56.19
2017-05-17T01:53:12.877Z,56.67
2017-05-17T01:53:53.472Z,56.48
2017-05-17T01:54:34.065Z,56.38
2017-05-17T01:55:14.650Z,56.67
2017-05-17T01:55:55.227Z,56.29
2017-05-17T01:56:35.819Z,56.48
2017-05-17T01:57:16.399Z,56.09
2017-05-17T01:57:56.987Z,55.9
2017-05-17T01:58:37.605Z,56.38
2017-05-17T01:59:18.202Z,56.67
2017-05-17T01:59:58.844Z,56.48
2017-05-17T02:00:39.421Z,56.76
2017-05-17T02:01:20.011Z,56.57
2017-05-17T02:02:00.600Z,56.29
2017-05-17T02:02:41.192Z,56.67
2017-05-17T02:03:21.765Z,56.48
2017-05-17T02:04:02.385Z,56.48
2017-05-17T02:04:42.998Z,56.48
2017-05-17T02:05:23.603Z,56.64
2017-05-17T02:06:04.208Z,56.67
2017-05-17T02:06:44.779Z,56.67
2017-05-17T02:07:25.347Z,56.45
2017-05-17T02:08:05.930Z,56.29
2017-05-17T02:08:46.545Z,56.57
2017-05-17T02:09:27.140Z,56.57
2017-05-17T02:10:07.729Z,56.19
2017-05-17T02:10:48.300Z,56.19
2017-05-17T02:11:28.895Z,56.16
2017-05-17T02:12:09.460Z,56.19
2017-05-17T02:12:50.033Z,55.9
2017-05-17T02:13:30.637Z,56.19
2017-05-17T02:14:11.225Z,56.09
2017-05-17T02:14:51.874Z,55.9
2017-05-17T02:15:32.457Z,56.67
2017-05-17T02:16:13.052Z,56.48
2017-05-17T02:16:53.629Z,56.48
2017-05-17T02:17:34.271Z,56.67
2017-05-17T02:18:14.866Z,56.57
2017-05-17T02:18:55.453Z,56.67
2017-05-17T02:19:36.029Z,56.86
2017-05-17T02:20:16.618Z,57.24
2017-05-17T02:20:57.175Z,57.15
2017-05-17T02:21:37.822Z,57.06
2017-05-17T02:22:18.394Z,56.64
2017-05-17T02:22:58.982Z,56.67
2017-05-17T02:23:39.633Z,56.48
2017-05-17T02:24:20.222Z,56
2017-05-17T02:25:00.813Z,56.19
2017-05-17T02:25:41.429Z,56.09
2017-05-17T02:26:22.043Z,56.57
2017-05-17T02:27:02.665Z,56.48
2017-05-17T02:27:43.255Z,56.09
2017-05-17T02:28:23.832Z,56.09
2017-05-17T02:29:04.458Z,56.38
2017-05-17T02:29:44.966Z,56.38
2017-05-17T02:30:25.563Z,56.38
2017-05-17T02:31:06.160Z,56
2017-05-17T02:31:46.743Z,56.19
2017-05-17T02:32:27.349Z,56.67
2017-05-17T02:33:07.929Z,56.57
2017-05-17T02:33:48.510Z,56.38
2017-05-17T02:34:29.094Z,56.67
2017-05-17T02:35:09.706Z,56.93
2017-05-17T02:35:50.297Z,56.38
2017-05-17T02:36:30.886Z,56.57
2017-05-17T02:37:11.468Z,56.48
2017-05-17T02:37:52.050Z,56.35
2017-05-17T02:38:32.642Z,56.67
2017-05-17T02:39:13.222Z,56.76
2017-05-17T02:39:53.805Z,57.06
2017-05-17T02:40:34.379Z,56.96
2017-05-17T02:41:14.973Z,57.34
2017-05-17T02:41:55.612Z,57.53
2017-05-17T02:42:36.184Z,57.15
2017-05-17T02:43:16.765Z,57.24
2017-05-17T02:43:57.358Z,57.15
2017-05-17T02:44:37.946Z,56.38
2017-05-17T02:45:18.531Z,57.06
2017-05-17T02:45:59.101Z,57.06
2017-05-17T02:46:39.677Z,57.15
2017-05-17T02:47:20.271Z,57.06
2017-05-17T02:48:00.862Z,57.53
2017-05-17T02:48:41.439Z,57.06
2017-05-17T02:49:22.030Z,57.06
2017-05-17T02:50:02.602Z,57.06
2017-05-17T02:50:43.187Z,57.24
2017-05-17T02:51:23.754Z,57.43
2017-05-17T02:52:04.313Z,57.06
2017-05-17T02:52:44.925Z,56.67
2017-05-17T02:53:25.506Z,57.15
2017-05-17T02:54:06.102Z,56.96
2017-05-17T02:54:46.680Z,57.24
2017-05-17T02:55:27.269Z,56.96
2017-05-17T02:56:07.846Z,56.64
2017-05-17T02:56:48.416Z,57.03
2017-05-17T02:57:29.004Z,57.06
2017-05-17T02:58:09.642Z,57.21
2017-05-17T02:58:50.186Z,57.34
2017-05-17T02:59:30.794Z,57.15
2017-05-17T03:00:11.369Z,57.21
2017-05-17T03:00:51.974Z,57.24
2017-05-17T03:01:32.562Z,57.43
2017-05-17T03:02:13.134Z,56.96
2017-05-17T03:02:53.712Z,57.53
2017-05-17T03:03:34.316Z,57.24
2017-05-17T03:04:14.918Z,57.15
2017-05-17T03:04:55.511Z,57.43
2017-05-17T03:05:36.107Z,57.24
2017-05-17T03:06:16.706Z,57.43
2017-05-17T03:06:57.301Z,57.5
2017-05-17T03:07:37.916Z,56.93
2017-05-17T03:08:18.500Z,56.86
2017-05-17T03:08:59.084Z,57.43
2017-05-17T03:09:39.690Z,57.21
2017-05-17T03:10:20.281Z,57.03
2017-05-17T03:11:00.899Z,57.41
2017-05-17T03:11:41.474Z,57.41
2017-05-17T03:12:22.058Z,57.31
2017-05-17T03:13:02.659Z,57.06
2017-05-17T03:13:43.242Z,57.24
2017-05-17T03:14:23.824Z,56.83
2017-05-17T03:15:04.415Z,56.93
2017-05-17T03:15:44.997Z,56.86
2017-05-17T03:16:25.597Z,57.15
2017-05-17T03:17:06.167Z,56.45
2017-05-17T03:17:46.743Z,56.48
2017-05-17T03:18:27.337Z,56.54
2017-05-17T03:19:07.917Z,56.35
2017-05-17T03:19:48.502Z,56.93
2017-05-17T03:20:29.076Z,56.45
2017-05-17T03:21:09.687Z,56.64
2017-05-17T03:21:50.303Z,56.64
2017-05-17T03:22:30.879Z,57.03
2017-05-17T03:23:11.440Z,56.45
2017-05-17T03:23:52.041Z,56.45
2017-05-17T03:24:32.631Z,56.54
2017-05-17T03:25:13.243Z,56.96
2017-05-17T03:25:53.849Z,57.12
2017-05-17T03:26:34.425Z,57.03
2017-05-17T03:27:15.001Z,56.93
2017-05-17T03:27:55.593Z,56.83
2017-05-17T03:28:36.187Z,56.74
2017-05-17T03:29:16.755Z,56.35
2017-05-17T03:29:57.337Z,56.45
2017-05-17T03:30:37.933Z,56.45
2017-05-17T03:31:18.507Z,56.35
2017-05-17T03:31:59.100Z,56.64
2017-05-17T03:32:39.718Z,56.35
2017-05-17T03:33:20.301Z,56.26
2017-05-17T03:34:00.885Z,55.68
2017-05-17T03:34:41.465Z,55.97
2017-05-17T03:35:22.044Z,56.26
2017-05-17T03:36:02.623Z,55.68
2017-05-17T03:36:43.235Z,56.07
2017-05-17T03:37:23.842Z,56.07
2017-05-17T03:38:04.395Z,56.64
2017-05-17T03:38:44.980Z,56.45
2017-05-17T03:39:25.561Z,55.87
2017-05-17T03:40:06.155Z,55.87
2017-05-17T03:40:46.738Z,55.87
2017-05-17T03:41:27.362Z,56.16
2017-05-17T03:42:07.974Z,56.26
2017-05-17T03:42:48.579Z,56.35
2017-05-17T03:43:29.166Z,55.87
2017-05-17T03:44:09.743Z,56.16
2017-05-17T03:44:50.336Z,56.45
2017-05-17T03:45:30.921Z,56.54
2017-05-17T03:46:11.502Z,56.64
2017-05-17T03:46:52.074Z,56.45
2017-05-17T03:47:32.653Z,56.07
2017-05-17T03:48:13.234Z,56.64
2017-05-17T03:48:53.822Z,56.64
2017-05-17T03:49:34.402Z,56.16
2017-05-17T03:50:14.982Z,55.58
2017-05-17T03:50:55.557Z,56.16
2017-05-17T03:51:36.144Z,55.78
2017-05-17T03:52:16.723Z,55.11
2017-05-17T03:52:57.297Z,55.3
2017-05-17T03:53:37.866Z,55.58
2017-05-17T03:54:18.459Z,55.78
2017-05-17T03:54:59.058Z,55.4
2017-05-17T03:55:39.633Z,55.78
2017-05-17T03:56:20.214Z,55.68
2017-05-17T03:57:00.801Z,55.78
2017-05-17T03:57:41.386Z,55.87
2017-05-17T03:58:21.967Z,56.16
2017-05-17T03:59:02.544Z,55.97
2017-05-17T03:59:43.135Z,55.78
2017-05-17T04:00:23.721Z,55.78
2017-05-17T04:01:04.309Z,56.07
2017-05-17T04:01:44.898Z,55.87
2017-05-17T04:02:25.474Z,56.26
2017-05-17T04:03:06.055Z,56.35
2017-05-17T04:03:46.642Z,56.26
2017-05-17T04:04:27.225Z,56.16
2017-05-17T04:05:07.823Z,55.58
2017-05-17T04:05:48.408Z,56.16
2017-05-17T04:06:28.995Z,56.07
2017-05-17T04:07:09.600Z,56.16
2017-05-17T04:07:50.190Z,55.52
2017-05-17T04:08:30.780Z,55.78
2017-05-17T04:09:11.354Z,55.49
2017-05-17T04:09:51.952Z,55.58
2017-05-17T04:10:32.555Z,55.68
2017-05-17T04:11:13.148Z,55.97
2017-05-17T04:11:53.731Z,55.8
2017-05-17T04:12:34.321Z,56.16
2017-05-17T04:13:14.978Z,56.64
2017-05-17T04:13:55.555Z,55.87
2017-05-17T04:14:36.129Z,55.8
2017-05-17T04:15:16.736Z,55.62
2017-05-17T04:15:57.316Z,55.4
2017-05-17T04:16:37.904Z,55.62
2017-05-17T04:17:18.534Z,55.78
2017-05-17T04:17:59.123Z,55.11
2017-05-17T04:18:39.727Z,55.68
2017-05-17T04:19:20.362Z,55.78
2017-05-17T04:20:00.953Z,55.78
2017-05-17T04:20:41.555Z,55.78
2017-05-17T04:21:22.129Z,55.97
2017-05-17T04:22:02.702Z,56.19
2017-05-17T04:22:43.313Z,56.16
2017-05-17T04:23:23.893Z,55.87
2017-05-17T04:24:04.486Z,56.07
2017-05-17T04:24:45.067Z,56.67
2017-05-17T04:25:25.652Z,56.16
2017-05-17T04:26:06.215Z,55.71
2017-05-17T04:26:46.795Z,55.9
2017-05-17T04:27:27.369Z,55.9
2017-05-17T04:28:07.948Z,55.8
2017-05-17T04:28:48.580Z,55.71
2017-05-17T04:29:29.230Z,55.71
2017-05-17T04:30:09.817Z,55.9
2017-05-17T04:30:50.405Z,55.8
2017-05-17T04:31:31.003Z,55.71
2017-05-17T04:32:11.591Z,55.62
2017-05-17T04:32:52.177Z,55.52
2017-05-17T04:33:32.781Z,55.42
2017-05-17T04:34:13.357Z,55.78
2017-05-17T04:34:53.932Z,55.9
2017-05-17T04:35:34.532Z,55.33
2017-05-17T04:36:15.138Z,55.13
2017-05-17T04:36:55.734Z,55.13
2017-05-17T04:37:36.315Z,55.13
2017-05-17T04:38:16.896Z,55.42
2017-05-17T04:38:57.483Z,55.9
2017-05-17T04:39:38.077Z,55.62
2017-05-17T04:40:18.653Z,55.9
2017-05-17T04:40:59.265Z,55.52
2017-05-17T04:41:39.850Z,55.8
2017-05-17T04:42:20.469Z,55.8
2017-05-17T04:43:01.066Z,55.9
2017-05-17T04:43:41.697Z,56
2017-05-17T04:44:22.266Z,55.9
2017-05-17T04:45:02.938Z,56
2017-05-17T04:45:43.523Z,55.9
2017-05-17T04:46:24.133Z,55.62
2017-05-17T04:47:04.783Z,56.09
2017-05-17T04:47:45.379Z,55.9
2017-05-17T04:48:25.971Z,55.9
2017-05-17T04:49:06.548Z,55.52
2017-05-17T04:49:47.138Z,55.42
2017-05-17T04:50:27.724Z,55.62
2017-05-17T04:51:08.308Z,55.62
2017-05-17T04:51:48.893Z,55.13
2017-05-17T04:52:29.568Z,54.94
2017-05-17T04:53:10.193Z,55.9
2017-05-17T04:53:50.789Z,57.95
2017-05-17T04:54:31.383Z,58.2
2017-05-17T04:55:11.985Z,57.46
2017-05-17T04:55:52.648Z,56.31
2017-05-17T04:56:33.192Z,57.28
2017-05-17T04:57:13.776Z,56.51
2017-05-17T04:57:54.365Z,57.85
2017-05-17T04:58:34.941Z,57.08
2017-05-17T04:59:15.543Z,56.98
2017-05-17T04:59:56.125Z,55.35
2017-05-17T05:00:36.736Z,56.02
2017-05-17T05:01:17.326Z,55.83
2017-05-17T05:01:57.931Z,55.35
2017-05-17T05:02:38.520Z,55.29
2017-05-17T05:03:19.105Z,56.02
2017-05-17T05:03:59.703Z,56.51
2017-05-17T05:04:40.292Z,56.53
2017-05-17T05:05:20.880Z,57.3
2017-05-17T05:06:01.476Z,57.21
2017-05-17T05:06:42.074Z,56.73
2017-05-17T05:07:22.679Z,56.24
2017-05-17T05:08:03.279Z,56.53
2017-05-17T05:08:43.863Z,56.24
2017-05-17T05:09:24.449Z,55.77
2017-05-17T05:10:05.036Z,54.9
2017-05-17T05:10:45.689Z,54.71
2017-05-17T05:11:26.238Z,54.71
2017-05-17T05:12:06.831Z,54.42
2017-05-17T05:12:47.456Z,54.8
2017-05-17T05:13:28.048Z,54.61
2017-05-17T05:14:08.626Z,55.19
2017-05-17T05:14:49.214Z,55.86
2017-05-17T05:15:29.829Z,55.38
2017-05-17T05:16:10.437Z,55.02
2017-05-17T05:16:51.072Z,55.51
2017-05-17T05:17:31.690Z,55.32
2017-05-17T05:18:12.310Z,55.02
2017-05-17T05:18:52.929Z,54.55
2017-05-17T05:19:33.515Z,53.58
2017-05-17T05:20:14.105Z,53.3
2017-05-17T05:20:54.721Z,53.97
2017-05-17T05:21:35.473Z,54.64
2017-05-17T05:22:16.060Z,54.25
2017-05-17T05:22:56.658Z,54.64
2017-05-17T05:23:37.268Z,54.93
2017-05-17T05:24:17.889Z,54.55
2017-05-17T05:24:58.490Z,54.74
2017-05-17T05:25:39.087Z,54.25
2017-05-17T05:26:19.669Z,53.49
2017-05-17T05:27:00.259Z,54.06
2017-05-17T05:27:40.868Z,54.16
2017-05-17T05:28:21.576Z,53.61
2017-05-17T05:29:02.153Z,54.28
2017-05-17T05:29:42.728Z,54.25
2017-05-17T05:30:23.305Z,54
2017-05-17T05:31:03.900Z,54.09
2017-05-17T05:31:44.505Z,53.52
2017-05-17T05:32:25.084Z,53.42
2017-05-17T05:33:05.669Z,53.52
2017-05-17T05:33:46.248Z,53.23
2017-05-17T05:34:26.827Z,52.46
2017-05-17T05:35:07.405Z,51.5
2017-05-17T05:35:48.009Z,52.1
2017-05-17T05:36:28.606Z,52.84
2017-05-17T05:37:09.178Z,52.68
2017-05-17T05:37:49.770Z,52.29
2017-05-17T05:38:30.361Z,52.48
2017-05-17T05:39:10.944Z,52.48
2017-05-17T05:39:51.527Z,52.48
2017-05-17T05:40:32.115Z,52.1
2017-05-17T05:41:12.688Z,52.39
2017-05-17T05:41:53.311Z,52.42
2017-05-17T05:42:33.950Z,51.55
2017-05-17T05:43:14.577Z,50.59
2017-05-17T05:43:55.168Z,50.49
2017-05-17T05:44:35.739Z,50.49
2017-05-17T05:45:16.324Z,50.04
2017-05-17T05:45:56.904Z,49.55
2017-05-17T05:46:37.513Z,49.46
2017-05-17T05:47:18.085Z,49.55
2017-05-17T05:47:58.710Z,49.46
2017-05-17T05:48:39.297Z,49.94
2017-05-17T05:49:19.888Z,48.71
2017-05-17T05:50:00.499Z,47.27
2017-05-17T05:50:41.115Z,47.17
2017-05-17T05:51:21.702Z,46.88
2017-05-17T05:52:02.297Z,46.5
2017-05-17T05:52:42.871Z,46.59
2017-05-17T05:53:23.457Z,46.98
2017-05-17T05:54:04.045Z,47.08
2017-05-17T05:54:44.717Z,46.5
2017-05-17T05:55:25.243Z,46.01
2017-05-17T05:56:05.839Z,46.14
2017-05-17T05:56:46.448Z,45.84
2017-05-17T05:57:27.034Z,45.94
2017-05-17T05:58:07.618Z,45.75
2017-05-17T05:58:48.226Z,46.14
2017-05-17T05:59:28.820Z,46.52
2017-05-17T06:00:09.413Z,46.91
2017-05-17T06:00:50.016Z,46.14
2017-05-17T06:01:30.610Z,45.84
2017-05-17T06:02:11.220Z,45.2
2017-05-17T06:02:51.814Z,45
2017-05-17T06:03:32.419Z,43.94
2017-05-17T06:04:13.031Z,43.37
2017-05-17T06:04:53.615Z,44.04
2017-05-17T06:05:34.201Z,43.65
2017-05-17T06:06:14.809Z,43.75
2017-05-17T06:06:55.460Z,43.75
2017-05-17T06:07:36.090Z,43.46
2017-05-17T06:08:16.663Z,44.35
2017-05-17T06:08:57.277Z,44.13
2017-05-17T06:09:37.872Z,43.87
2017-05-17T06:10:18.450Z,42.42
2017-05-17T06:10:59.078Z,43
2017-05-17T06:11:39.709Z,42.13
2017-05-17T06:12:20.299Z,42.8
2017-05-17T06:13:01.306Z,42.8
2017-05-17T06:13:41.896Z,43.19
2017-05-17T06:14:22.480Z,42.13
2017-05-17T06:15:03.091Z,43.1
2017-05-17T06:15:43.682Z,43.19
2017-05-17T06:16:24.282Z,44.08
2017-05-17T06:17:04.866Z,43.7
2017-05-17T06:17:45.454Z,43.7
2017-05-17T06:18:26.260Z,42.63
2017-05-17T06:19:07.365Z,41.38
2017-05-17T06:19:48.272Z,41.38
2017-05-17T06:20:29.151Z,41.96
2017-05-17T06:21:09.696Z,42.15
2017-05-17T06:21:50.287Z,41.57
2017-05-17T06:22:30.901Z,41.19
2017-05-17T06:23:12.009Z,41.02
2017-05-17T06:23:52.539Z,40.92
2017-05-17T06:24:33.092Z,41.2
2017-05-17T06:25:13.672Z,41.11
2017-05-17T06:25:54.394Z,40.44
2017-05-17T06:26:35.365Z,39.95
2017-05-17T06:27:16.811Z,40.92
2017-05-17T06:27:57.520Z,40.92
2017-05-17T06:28:38.238Z,40.17
2017-05-17T06:29:18.840Z,40.55
2017-05-17T06:29:59.627Z,40.65
2017-05-17T06:30:40.177Z,40.26
2017-05-17T06:31:20.800Z,40.36
2017-05-17T06:32:01.391Z,40.45
2017-05-17T06:32:41.997Z,40.17
2017-05-17T06:33:22.569Z,39.78
2017-05-17T06:34:03.188Z,39.49
2017-05-17T06:34:43.876Z,39.8
2017-05-17T06:35:24.475Z,39.7
2017-05-17T06:36:05.062Z,39.7
2017-05-17T06:36:45.669Z,39.61
2017-05-17T06:37:26.234Z,39.32
2017-05-17T06:38:06.821Z,38.93
2017-05-17T06:38:47.427Z,37.38
2017-05-17T06:39:28.041Z,37.58
2017-05-17T06:40:08.643Z,36.71
2017-05-17T06:40:49.222Z,37.58
2017-05-17T06:41:29.812Z,37.87
2017-05-17T06:42:10.408Z,38.83
2017-05-17T06:42:51.006Z,38.35
2017-05-17T06:43:31.626Z,37.96
2017-05-17T06:44:12.241Z,38.16
2017-05-17T06:44:52.842Z,38.74
2017-05-17T06:45:33.415Z,38.93
2017-05-17T06:46:14.016Z,38.64
2017-05-17T06:46:54.631Z,38.54
2017-05-17T06:47:35.228Z,37.1
2017-05-17T06:48:15.823Z,36.71
2017-05-17T06:48:56.450Z,37.58
2017-05-17T06:49:37.014Z,37.87
2017-05-17T06:50:17.597Z,37.77
2017-05-17T06:50:58.193Z,36.52
2017-05-17T06:51:38.799Z,37.3
2017-05-17T06:52:19.404Z,37.48
2017-05-17T06:53:00.002Z,36.53
2017-05-17T06:53:40.575Z,36.44
2017-05-17T06:54:21.158Z,36.72
2017-05-17T06:55:01.746Z,36.72
2017-05-17T06:55:42.323Z,37.21
2017-05-17T06:56:22.925Z,36.34
2017-05-17T06:57:03.521Z,36.24
2017-05-17T06:57:44.116Z,36.82
2017-05-17T06:58:24.736Z,37.4
2017-05-17T06:59:05.371Z,37.98
2017-05-17T07:00:01.157Z,38.76
2017-05-17T07:00:50.077Z,37.79
2017-05-17T07:01:30.665Z,37.62
2017-05-17T07:02:11.263Z,37.71
2017-05-17T07:02:51.858Z,36.63
2017-05-17T07:03:32.449Z,35.95
2017-05-17T07:04:13.078Z,36.36
2017-05-17T07:04:53.666Z,36.84
2017-05-17T07:05:34.298Z,36.53
2017-05-17T07:06:14.911Z,36.15
2017-05-17T07:06:55.502Z,35.68
2017-05-17T07:07:36.109Z,35.39
2017-05-17T07:08:16.695Z,35.95
2017-05-17T07:08:57.283Z,37.4
2017-05-17T07:09:37.925Z,37.32
2017-05-17T07:10:18.508Z,36.65
2017-05-17T07:10:59.096Z,36.16
2017-05-17T07:11:39.694Z,36.07
2017-05-17T07:12:20.305Z,36.07
2017-05-17T07:13:00.920Z,36.46
2017-05-17T07:13:41.495Z,37.04
2017-05-17T07:14:22.694Z,36.16
2017-05-17T07:15:03.300Z,36.16
2017-05-17T07:15:43.953Z,36.55
2017-05-17T07:16:24.516Z,36.55
2017-05-17T07:17:05.115Z,36.18
2017-05-17T07:17:45.724Z,36.08
2017-05-17T07:18:26.321Z,35.8
2017-05-17T07:19:07.018Z,36.57
2017-05-17T07:19:47.652Z,35.41
2017-05-17T07:20:28.269Z,34.73
2017-05-17T07:21:08.889Z,34.71
2017-05-17T07:21:49.508Z,35.7
2017-05-17T07:22:30.101Z,36.47
2017-05-17T07:23:10.723Z,36.38
2017-05-17T07:23:51.325Z,35.41
2017-05-17T07:24:31.964Z,36.38
2017-05-17T07:25:12.548Z,34.83
2017-05-17T07:25:53.126Z,34.54
2017-05-17T07:26:33.699Z,34.54
2017-05-17T07:27:14.296Z,34.83
2017-05-17T07:27:54.910Z,34.63
2017-05-17T07:28:35.500Z,34.54
2017-05-17T07:29:16.091Z,34.92
2017-05-17T07:29:56.688Z,34.73
2017-05-17T07:30:37.294Z,34.54
2017-05-17T07:31:17.891Z,34.05
2017-05-17T07:31:58.494Z,34.83
2017-05-17T07:32:39.087Z,35.21
2017-05-17T07:33:19.704Z,34.92
2017-05-17T07:34:00.284Z,35.7
2017-05-17T07:34:40.888Z,35.02
2017-05-17T07:35:21.494Z,35.02
2017-05-17T07:36:02.100Z,33.97
2017-05-17T07:36:42.723Z,34.55
2017-05-17T07:37:23.324Z,34.05
2017-05-17T07:38:03.909Z,33.87
2017-05-17T07:38:44.512Z,33.97
2017-05-17T07:39:25.577Z,33.69
2017-05-17T07:40:06.089Z,34.84
2017-05-17T07:40:46.743Z,35.81
2017-05-17T07:41:27.422Z,34.94
2017-05-17T07:42:08.005Z,34.84
2017-05-17T07:42:48.605Z,34.75
2017-05-17T07:43:29.212Z,34.94
2017-05-17T07:44:09.842Z,34.75
2017-05-17T07:44:50.468Z,34.75
2017-05-17T07:45:31.143Z,35.23
2017-05-17T07:46:11.806Z,34.36
2017-05-17T07:46:52.535Z,35.42
2017-05-17T07:47:33.168Z,35.23
2017-05-17T07:48:13.816Z,36.3
2017-05-17T07:48:54.525Z,35.52
2017-05-17T07:49:35.233Z,35.04
2017-05-17T07:50:15.864Z,34.75
2017-05-17T07:50:56.495Z,34.75
2017-05-17T07:51:37.258Z,35.04
2017-05-17T07:52:17.928Z,35.52
2017-05-17T07:52:58.556Z,34.94
2017-05-17T07:53:39.165Z,34.84
2017-05-17T07:54:19.774Z,33.97
2017-05-17T07:55:00.405Z,33.97
2017-05-17T07:55:41.009Z,33.97
2017-05-17T07:56:21.757Z,33.97
2017-05-17T07:57:02.470Z,33.86
2017-05-17T07:57:43.106Z,34.15
2017-05-17T07:58:23.717Z,34.73
2017-05-17T07:59:04.329Z,36.18
2017-05-17T07:59:44.975Z,37.44
2017-05-17T08:00:25.608Z,37.63
2017-05-17T08:01:06.425Z,36.47
2017-05-17T08:01:46.853Z,35.91
2017-05-17T08:02:27.490Z,35.31
2017-05-17T08:03:08.107Z,34.84
2017-05-17T08:03:48.765Z,36.47
2017-05-17T08:04:29.383Z,36.78
2017-05-17T08:05:10.039Z,34.94
2017-05-17T08:05:50.752Z,34.45
2017-05-17T08:06:31.514Z,34.94
2017-05-17T08:07:12.120Z,35.52
2017-05-17T08:07:52.760Z,35.42
2017-05-17T08:08:33.366Z,36.1
2017-05-17T08:09:14.023Z,38.43
2017-05-17T08:09:54.661Z,38.81
2017-05-17T08:10:35.293Z,37.36
2017-05-17T08:11:15.916Z,35.04
2017-05-17T08:11:56.509Z,35.42
2017-05-17T08:12:37.117Z,35.23
2017-05-17T08:13:17.756Z,34.65
2017-05-17T08:13:58.351Z,34.75
2017-05-17T08:14:39.062Z,34.94
2017-05-17T08:15:19.655Z,35.04
2017-05-17T08:16:00.350Z,34.84
2017-05-17T08:16:40.892Z,34.65
2017-05-17T08:17:21.678Z,34.73
2017-05-17T08:18:02.230Z,34.73
2017-05-17T08:18:42.853Z,34.73
2017-05-17T08:19:23.494Z,35.99
2017-05-17T08:20:04.069Z,35.7
2017-05-17T08:20:44.762Z,35.31
2017-05-17T08:21:25.360Z,35.41
2017-05-17T08:22:06.110Z,35.31
2017-05-17T08:22:46.662Z,37.73
2017-05-17T08:23:27.284Z,38.21
2017-05-17T08:24:07.913Z,37.34
2017-05-17T08:24:48.503Z,37.65
2017-05-17T08:25:29.234Z,36.98
2017-05-17T08:26:09.837Z,38.81
2017-05-17T08:26:50.433Z,37.55
2017-05-17T08:27:31.033Z,37.65
2017-05-17T08:28:11.792Z,37.85
2017-05-17T08:28:52.410Z,36.2
2017-05-17T08:29:33.357Z,35.41
2017-05-17T08:30:13.862Z,36.86
2017-05-17T08:30:54.504Z,37.63
2017-05-17T08:31:35.123Z,38.21
2017-05-17T08:32:15.726Z,36.38
2017-05-17T08:32:56.338Z,36.76
2017-05-17T08:33:37.068Z,36.57
2017-05-17T08:34:17.707Z,37.73
2017-05-17T08:34:58.378Z,38.5
2017-05-17T08:35:39.099Z,38.5
2017-05-17T08:36:19.703Z,36.66
2017-05-17T08:37:00.479Z,36.86
2017-05-17T08:37:41.042Z,36.18
2017-05-17T08:38:21.793Z,36.08
2017-05-17T08:39:02.497Z,36.57
2017-05-17T08:39:43.035Z,38.79
2017-05-17T08:40:23.691Z,39.28
2017-05-17T08:41:04.296Z,37.73
2017-05-17T08:41:44.887Z,37.44
2017-05-17T08:42:25.497Z,37.63
2017-05-17T08:43:06.116Z,39.57
2017-05-17T08:43:46.995Z,40.63
2017-05-17T08:44:27.543Z,40.92
2017-05-17T08:45:08.241Z,40.84